ポンティアナック の空港の天気 - METARとTAF

ポンティアナック・スパディオ空港 ( WIOO / PNK ) - インドネシア 西カリマンタン州ポンティアナック
飛行場実況気象(Metar)
観測時間07/05 10:00 WIB (07/05 03:00 UTC)
風向・風速東 2m/s
視程10km以上
天気現象
少しの雲 雲底高度 370m
全天の8割程度の雲 雲底高度 400m
気温32℃
湿度67%
気圧1008hPa
METARWIOO 050300Z 10004KT 9999 FEW012CB BKN013 32/25 Q1008 NOSIG
過去の天気等 Google飛行場航空写真 Wunderground天気予報

過去48時間のMETAR

飛行場予報(TAF)
データがありません